Time;durP1;ratioP1;P1;durP2;ratioP2;P2;SDS_P1;SDS_P2;PMS_P1;PMS_P2;Temp;Humidity;BMP_temperature;BMP_pressure;BME280_temperature;BME280_humidity;BME280_pressure;Samples;Min_cycle;Max_cycle;Signal;HPM_P1;HPM_P2
2022/08/18 00:01:21;;;;;;;;;;;19.60;99.90;;;;;;5073013;28;19912;-74
2022/08/18 00:03:48;;;;;;;;;;;19.60;99.90;;;;;;5072129;28;19918;-73
2022/08/18 00:06:13;;;;;;;;;;;19.60;99.90;;;;;;5074534;28;19920;-74
2022/08/18 00:08:40;;;;;;;;;;;19.70;99.90;;;;;;5072385;28;19935;-74
2022/08/18 00:11:06;;;;;;;;;;;19.70;99.90;;;;;;5074183;28;19912;-74
2022/08/18 00:13:31;;;;;;;;;;;19.70;99.90;;;;;;5073946;28;20303;-74
2022/08/18 00:15:57;;;;;;;;;;;19.70;99.90;;;;;;5061188;28;19916;-73
2022/08/18 00:18:23;;;;;;;;;;;19.60;99.90;;;;;;5065077;28;19920;-74
2022/08/18 00:20:48;;;;;;;;;;;19.70;99.90;;;;;;5069632;28;19917;-74
2022/08/18 00:23:14;;;;;;;;;;;19.70;99.90;;;;;;5069428;28;19913;-74
2022/08/18 00:25:40;;;;;;;;;;;19.70;99.90;;;;;;5065791;28;19909;-74
2022/08/18 00:28:05;;;;;;;;;;;19.60;99.90;;;;;;5071807;28;19916;-73
2022/08/18 00:30:31;;;;;;;;;;;19.60;99.90;;;;;;5074034;28;20024;-74
2022/08/18 00:32:58;;;;;;;;;;;19.60;99.90;;;;;;5072601;28;19970;-75
2022/08/18 00:35:26;;;;;;;;;;;19.60;99.90;;;;;;5073231;28;19920;-74
2022/08/18 00:37:52;;;;;;;;;;;19.50;99.90;;;;;;5106822;28;19961;-75
2022/08/18 00:40:20;;;;;;;;;;;19.40;99.90;;;;;;5072352;28;19970;-74
2022/08/18 00:42:48;;;;;;;;;;;19.40;99.90;;;;;;5074948;28;20361;-75
2022/08/18 00:45:16;;;;;;;;;;;19.30;99.90;;;;;;5074352;28;19958;-73
2022/08/18 00:47:42;;;;;;;;;;;19.30;99.90;;;;;;5074881;28;19935;-74
2022/08/18 00:50:08;;;;;;;;;;;19.20;99.90;;;;;;5069752;28;19912;-74
2022/08/18 00:52:34;;;;;;;;;;;19.20;99.90;;;;;;5075157;28;19920;-74
2022/08/18 00:55:02;;;;;;;;;;;19.20;99.90;;;;;;5072104;28;19916;-74
2022/08/18 00:57:28;;;;;;;;;;;19.20;99.90;;;;;;5071422;28;19912;-74
2022/08/18 01:00:10;;;;;;;;;;;19.10;99.90;;;;;;5072806;28;19912;-74
2022/08/18 01:02:39;;;;;;;;;;;19.00;99.90;;;;;;5071795;28;19991;-74
2022/08/18 01:05:15;;;;;;;;;;;18.90;99.90;;;;;;5074750;28;19912;-74
2022/08/18 01:07:45;;;;;;;;;;;18.90;99.90;;;;;;5074771;28;20180;-74
2022/08/18 01:10:15;;;;;;;;;;;18.90;99.90;;;;;;5060682;28;20372;-74
2022/08/18 01:12:41;;;;;;;;;;;18.90;99.90;;;;;;5074163;28;20366;-75
2022/08/18 01:15:07;;;;;;;;;;;18.90;99.90;;;;;;5074010;28;20024;-75
2022/08/18 01:23:10;;;;;;;;;;;18.70;99.90;;;;;;5067458;28;20030;-73
2022/08/18 01:28:22;;;;;;;;;;;18.70;99.90;;;;;;5073180;28;20219;-74
2022/08/18 01:30:49;;;;;;;;;;;18.60;99.90;;;;;;5071047;28;19919;-74
2022/08/18 01:33:15;;;;;;;;;;;18.60;99.90;;;;;;5074511;28;19959;-74
2022/08/18 01:35:42;;;;;;;;;;;18.50;99.90;;;;;;5072396;28;19917;-74
2022/08/18 01:38:07;;;;;;;;;;;18.50;99.90;;;;;;5073339;28;19955;-74
2022/08/18 01:40:33;;;;;;;;;;;18.50;99.90;;;;;;5071421;28;19916;-74
2022/08/18 01:43:02;;;;;;;;;;;18.50;99.90;;;;;;5074216;28;19998;-75
2022/08/18 01:45:27;;;;;;;;;;;18.50;99.90;;;;;;5070728;28;20311;-74
2022/08/18 01:47:54;;;;;;;;;;;18.50;99.90;;;;;;5073252;28;19920;-74
2022/08/18 01:50:20;;;;;;;;;;;18.50;99.90;;;;;;5070892;28;19920;-74
2022/08/18 01:52:46;;;;;;;;;;;18.50;99.90;;;;;;5073767;28;19909;-74
2022/08/18 01:55:11;;;;;;;;;;;18.50;99.90;;;;;;5070421;28;19916;-74
2022/08/18 01:57:43;;;;;;;;;;;18.40;99.90;;;;;;5071505;28;19919;-74
2022/08/18 02:00:13;;;;;;;;;;;18.40;99.90;;;;;;5073968;28;20386;-74
2022/08/18 02:02:40;;;;;;;;;;;18.40;99.90;;;;;;5073218;28;19916;-74
2022/08/18 02:05:09;;;;;;;;;;;18.40;99.90;;;;;;5071739;28;19913;-74
2022/08/18 02:07:34;;;;;;;;;;;18.30;99.90;;;;;;5072125;28;19916;-74
2022/08/18 02:10:00;;;;;;;;;;;18.30;99.90;;;;;;5073386;28;20292;-74
2022/08/18 02:12:26;;;;;;;;;;;18.20;99.90;;;;;;5072315;28;19913;-74
2022/08/18 02:14:52;;;;;;;;;;;18.10;99.90;;;;;;5073129;28;19923;-75
2022/08/18 02:17:18;;;;;;;;;;;18.10;99.90;;;;;;5073049;28;20019;-75
2022/08/18 02:19:45;;;;;;;;;;;18.20;99.90;;;;;;5073668;28;19913;-74
2022/08/18 02:22:12;;;;;;;;;;;18.20;99.90;;;;;;5073513;28;19916;-75
2022/08/18 02:24:37;;;;;;;;;;;18.20;99.90;;;;;;5081817;28;19991;-75
2022/08/18 02:27:03;;;;;;;;;;;18.10;99.90;;;;;;5073290;28;20011;-75
2022/08/18 02:29:29;;;;;;;;;;;18.10;99.90;;;;;;5072540;28;19912;-78
2022/08/18 02:31:54;;;;;;;;;;;18.00;99.90;;;;;;5071419;28;19930;-75
2022/08/18 02:34:20;;;;;;;;;;;17.90;99.90;;;;;;5072761;28;19940;-74
2022/08/18 02:36:45;;;;;;;;;;;17.90;99.90;;;;;;5071760;28;20441;-74
2022/08/18 02:39:11;;;;;;;;;;;17.90;99.90;;;;;;5072564;28;19920;-74
2022/08/18 02:41:36;;;;;;;;;;;17.90;99.90;;;;;;5077382;28;20285;-74
2022/08/18 02:44:03;;;;;;;;;;;17.90;99.90;;;;;;5075094;28;19913;-74
2022/08/18 02:46:29;;;;;;;;;;;17.90;99.90;;;;;;5076841;28;20007;-74
2022/08/18 02:48:55;;;;;;;;;;;17.90;99.90;;;;;;5077756;28;19999;-73
2022/08/18 02:51:21;;;;;;;;;;;18.00;99.90;;;;;;5076853;28;20027;-74
2022/08/18 02:53:47;;;;;;;;;;;18.00;99.90;;;;;;5075926;28;20401;-73
2022/08/18 02:56:23;;;;;;;;;;;18.00;99.90;;;;;;5109039;28;20351;-73
2022/08/18 02:58:54;;;;;;;;;;;18.10;99.90;;;;;;5076301;28;19912;-74
2022/08/18 03:01:21;;;;;;;;;;;18.20;99.90;;;;;;5076540;28;20295;-74
2022/08/18 03:03:47;;;;;;;;;;;18.30;99.90;;;;;;5076485;28;19912;-74
2022/08/18 03:06:13;;;;;;;;;;;18.30;99.90;;;;;;5075110;28;20276;-74
2022/08/18 03:08:39;;;;;;;;;;;18.30;99.90;;;;;;5077062;28;19987;-74
2022/08/18 03:11:04;;;;;;;;;;;18.30;99.90;;;;;;5074184;28;20011;-74
2022/08/18 03:13:30;;;;;;;;;;;18.30;99.90;;;;;;5106553;28;20246;-74
2022/08/18 03:15:56;;;;;;;;;;;18.30;99.90;;;;;;5076950;28;20242;-74
2022/08/18 03:18:22;;;;;;;;;;;18.30;99.90;;;;;;5074656;28;20722;-74
2022/08/18 03:20:48;;;;;;;;;;;18.30;99.90;;;;;;5077289;28;19948;-74
2022/08/18 03:23:13;;;;;;;;;;;18.30;99.90;;;;;;5068568;28;19917;-74
2022/08/18 03:25:46;;;;;;;;;;;18.40;99.90;;;;;;5075525;28;20111;-73
2022/08/18 03:28:13;;;;;;;;;;;18.40;99.90;;;;;;5072368;28;19916;-73
2022/08/18 03:30:38;;;;;;;;;;;18.40;99.90;;;;;;5076842;28;19920;-73
2022/08/18 03:33:04;;;;;;;;;;;18.50;99.90;;;;;;5076657;28;19909;-73
2022/08/18 03:35:29;;;;;;;;;;;18.60;99.90;;;;;;5074677;28;20374;-73
2022/08/18 03:37:58;;;;;;;;;;;18.60;99.90;;;;;;5075562;28;20335;-73
2022/08/18 03:40:24;;;;;;;;;;;18.70;99.90;;;;;;5076232;28;19916;-73
2022/08/18 03:42:50;;;;;;;;;;;18.70;99.90;;;;;;5108913;28;19919;-73
2022/08/18 03:45:16;;;;;;;;;;;18.70;99.90;;;;;;5074281;28;19908;-73
2022/08/18 03:47:44;;;;;;;;;;;18.70;99.90;;;;;;5072341;28;19970;-73
2022/08/18 03:50:11;;;;;;;;;;;18.70;99.90;;;;;;5073760;28;19912;-73
2022/08/18 03:52:37;;;;;;;;;;;18.70;99.90;;;;;;5075256;28;19908;-72
2022/08/18 03:55:03;;;;;;;;;;;18.60;99.90;;;;;;5074947;28;19916;-73
2022/08/18 03:57:32;;;;;;;;;;;18.60;99.90;;;;;;5075098;28;19913;-73
2022/08/18 03:59:58;;;;;;;;;;;18.50;99.90;;;;;;5070242;28;19920;-74
2022/08/18 04:02:23;;;;;;;;;;;18.50;99.90;;;;;;5056835;28;20019;-72
2022/08/18 04:04:49;;;;;;;;;;;18.50;99.90;;;;;;5072557;28;20002;-73
2022/08/18 04:07:16;;;;;;;;;;;18.50;99.90;;;;;;5075327;28;19912;-72
2022/08/18 04:09:42;;;;;;;;;;;18.40;99.90;;;;;;5074960;28;20224;-72
2022/08/18 04:12:14;;;;;;;;;;;18.50;99.90;;;;;;5069944;28;19919;-72
2022/08/18 04:14:41;;;;;;;;;;;18.50;99.90;;;;;;5071035;28;19916;-72
2022/08/18 04:17:07;;;;;;;;;;;18.50;99.90;;;;;;5073683;28;19920;-73
2022/08/18 04:19:33;;;;;;;;;;;18.50;99.90;;;;;;5074809;28;20313;-72
2022/08/18 04:21:59;;;;;;;;;;;18.50;99.90;;;;;;5074538;28;19964;-73
2022/08/18 04:24:26;;;;;;;;;;;18.50;99.90;;;;;;5073957;28;19916;-72
2022/08/18 04:26:52;;;;;;;;;;;18.40;99.90;;;;;;5073402;28;20568;-72
2022/08/18 04:29:19;;;;;;;;;;;18.40;99.90;;;;;;5073957;28;19940;-72
2022/08/18 04:31:45;;;;;;;;;;;18.40;99.90;;;;;;5075174;28;19908;-73
2022/08/18 04:34:12;;;;;;;;;;;18.40;99.90;;;;;;5075751;28;19965;-73
2022/08/18 04:36:39;;;;;;;;;;;18.50;99.90;;;;;;5074613;28;19938;-73
2022/08/18 04:39:05;;;;;;;;;;;18.60;99.90;;;;;;5073203;28;19916;-73
2022/08/18 04:41:31;;;;;;;;;;;18.60;99.90;;;;;;5074752;28;19917;-75
2022/08/18 04:43:57;;;;;;;;;;;18.50;99.90;;;;;;5075012;28;20290;-74
2022/08/18 04:46:23;;;;;;;;;;;18.50;99.90;;;;;;5075000;28;19928;-74
2022/08/18 04:48:49;;;;;;;;;;;18.50;99.90;;;;;;5074616;28;19923;-73
2022/08/18 04:51:17;;;;;;;;;;;18.50;99.90;;;;;;5073733;28;20207;-74
2022/08/18 04:53:46;;;;;;;;;;;18.60;99.90;;;;;;5069196;28;19924;-73
2022/08/18 04:56:16;;;;;;;;;;;18.70;99.90;;;;;;5069514;28;20007;-73
2022/08/18 04:58:41;;;;;;;;;;;18.80;99.90;;;;;;5064582;28;19955;-74
2022/08/18 05:01:08;;;;;;;;;;;18.90;99.90;;;;;;5070866;28;19944;-73
2022/08/18 05:03:35;;;;;;;;;;;18.80;99.90;;;;;;5072236;28;20314;-73
2022/08/18 05:06:03;;;;;;;;;;;18.90;99.90;;;;;;5073161;28;19926;-74
2022/08/18 05:08:29;;;;;;;;;;;18.90;99.90;;;;;;5074658;28;19913;-73
2022/08/18 05:10:56;;;;;;;;;;;18.90;99.90;;;;;;5070615;28;19936;-74
2022/08/18 05:13:22;;;;;;;;;;;18.90;99.90;;;;;;5074714;28;19916;-74
2022/08/18 05:15:52;;;;;;;;;;;19.00;99.90;;;;;;5073590;28;19913;-74
2022/08/18 05:18:19;;;;;;;;;;;18.90;99.90;;;;;;5074191;28;19920;-74
2022/08/18 05:20:44;;;;;;;;;;;19.00;99.90;;;;;;5072946;28;20314;-74
2022/08/18 05:23:10;;;;;;;;;;;19.00;99.90;;;;;;5070843;28;19913;-73
2022/08/18 05:25:38;;;;;;;;;;;19.10;99.90;;;;;;5070650;28;19975;-74
2022/08/18 05:28:04;;;;;;;;;;;19.20;99.90;;;;;;5071515;28;19927;-73
2022/08/18 05:30:30;;;;;;;;;;;19.20;99.90;;;;;;5071993;28;19920;-73
2022/08/18 05:32:57;;;;;;;;;;;19.20;99.90;;;;;;5070512;28;19916;-74
2022/08/18 05:35:31;;;;;;;;;;;19.30;99.90;;;;;;5070519;28;20514;-73
2022/08/18 05:38:05;;;;;;;;;;;19.20;99.90;;;;;;5072518;28;19923;-73
2022/08/18 05:40:31;;;;;;;;;;;19.30;99.90;;;;;;5072847;28;19919;-73
2022/08/18 05:42:58;;;;;;;;;;;19.20;99.90;;;;;;5071615;28;19916;-73
2022/08/18 05:45:23;;;;;;;;;;;19.20;99.90;;;;;;5069759;28;20320;-74
2022/08/18 05:47:50;;;;;;;;;;;19.20;99.90;;;;;;5071434;28;19927;-73
2022/08/18 05:50:18;;;;;;;;;;;19.30;99.90;;;;;;5071068;28;19995;-73
2022/08/18 05:53:02;;;;;;;;;;;19.30;99.90;;;;;;5100895;28;19962;-73
2022/08/18 05:58:23;;;;;;;;;;;19.50;99.90;;;;;;5069949;28;19919;-73
2022/08/18 06:00:52;;;;;;;;;;;19.60;99.90;;;;;;5070092;28;19928;-73
2022/08/18 06:03:22;;;;;;;;;;;19.70;99.90;;;;;;5070535;28;19916;-73
2022/08/18 06:06:00;;;;;;;;;;;19.70;99.90;;;;;;5066587;28;19912;-72
2022/08/18 06:08:45;;;;;;;;;;;19.90;99.90;;;;;;5070087;28;19913;-74
2022/08/18 06:11:11;;;;;;;;;;;19.90;99.90;;;;;;5102010;28;19917;-73
2022/08/18 06:13:38;;;;;;;;;;;19.90;99.90;;;;;;5071454;28;19916;-75
2022/08/18 06:16:07;;;;;;;;;;;19.90;99.90;;;;;;5072164;28;19923;-75
2022/08/18 06:18:40;;;;;;;;;;;19.90;99.90;;;;;;5071799;28;19913;-74
2022/08/18 06:21:25;;;;;;;;;;;19.90;99.90;;;;;;5070846;28;19913;-75
2022/08/18 06:23:50;;;;;;;;;;;19.90;99.90;;;;;;5071277;28;19955;-73
2022/08/18 06:26:24;;;;;;;;;;;19.90;99.90;;;;;;5070417;28;20346;-74
2022/08/18 06:29:08;;;;;;;;;;;19.90;99.90;;;;;;5071200;28;19942;-73
2022/08/18 06:31:34;;;;;;;;;;;19.90;99.90;;;;;;5068141;28;19960;-75
2022/08/18 06:34:08;;;;;;;;;;;20.00;99.90;;;;;;5068758;28;20033;-73
2022/08/18 06:36:57;;;;;;;;;;;20.00;99.90;;;;;;5072093;28;19923;-73
2022/08/18 06:39:25;;;;;;;;;;;20.00;99.90;;;;;;5068703;28;20311;-74
2022/08/18 06:41:52;;;;;;;;;;;20.10;99.90;;;;;;5069912;28;19925;-74
2022/08/18 06:44:30;;;;;;;;;;;20.10;99.90;;;;;;5069849;28;19920;-73
2022/08/18 06:47:10;;;;;;;;;;;20.00;99.90;;;;;;5069781;28;19916;-73
2022/08/18 06:49:39;;;;;;;;;;;20.10;99.90;;;;;;5070481;28;19947;-73
2022/08/18 06:52:21;;;;;;;;;;;20.20;99.90;;;;;;5077231;28;20000;-73
2022/08/18 06:54:47;;;;;;;;;;;20.20;99.90;;;;;;5068872;28;20398;-73
2022/08/18 06:57:25;;;;;;;;;;;20.20;99.90;;;;;;5071316;28;19970;-74
2022/08/18 06:59:58;;;;;;;;;;;20.30;99.90;;;;;;5069087;28;19917;-74
2022/08/18 07:02:30;;;;;;;;;;;20.40;99.90;;;;;;5070750;28;19916;-73
2022/08/18 07:05:06;;;;;;;;;;;20.50;99.90;;;;;;5069194;28;20003;-73
2022/08/18 07:07:40;;;;;;;;;;;20.50;99.90;;;;;;5071684;28;19959;-73
2022/08/18 07:10:25;;;;;;;;;;;20.60;99.90;;;;;;5070382;28;20231;-73
2022/08/18 07:12:51;;;;;;;;;;;20.60;99.90;;;;;;5071137;28;19913;-73
2022/08/18 07:15:22;;;;;;;;;;;20.70;99.90;;;;;;5070139;28;19935;-73
2022/08/18 07:17:48;;;;;;;;;;;20.70;99.90;;;;;;5068801;28;19932;-73
2022/08/18 07:20:22;;;;;;;;;;;20.80;99.90;;;;;;5069037;28;19916;-73
2022/08/18 07:22:58;;;;;;;;;;;20.90;99.90;;;;;;5070910;28;19970;-74
2022/08/18 07:25:31;;;;;;;;;;;21.00;99.90;;;;;;5069281;28;19970;-73
2022/08/18 07:28:00;;;;;;;;;;;21.00;99.90;;;;;;5075644;28;19925;-73
2022/08/18 07:30:25;;;;;;;;;;;21.20;99.90;;;;;;5074240;28;19925;-73
2022/08/18 07:32:57;;;;;;;;;;;21.30;99.90;;;;;;5075511;28;20509;-74
2022/08/18 07:35:26;;;;;;;;;;;21.50;99.90;;;;;;5073069;28;19916;-73
2022/08/18 07:37:54;;;;;;;;;;;21.70;99.90;;;;;;5074108;28;20323;-74
2022/08/18 07:40:30;;;;;;;;;;;22.00;99.90;;;;;;5072945;28;20202;-75
2022/08/18 07:43:00;;;;;;;;;;;22.10;99.90;;;;;;5072166;28;19923;-74
2022/08/18 07:45:26;;;;;;;;;;;22.00;99.90;;;;;;5073010;28;19927;-75
2022/08/18 07:47:53;;;;;;;;;;;22.00;99.90;;;;;;5073273;28;19925;-74
2022/08/18 07:50:21;;;;;;;;;;;22.10;99.90;;;;;;5072349;28;19996;-74
2022/08/18 07:52:49;;;;;;;;;;;22.10;99.90;;;;;;5074421;28;19966;-74
2022/08/18 07:55:31;;;;;;;;;;;21.90;99.90;;;;;;5073384;28;19927;-74
2022/08/18 07:58:16;;;;;;;;;;;22.20;99.90;;;;;;5072658;28;19916;-74
2022/08/18 08:00:47;;;;;;;;;;;22.50;99.90;;;;;;5073345;28;19928;-74
2022/08/18 08:03:12;;;;;;;;;;;22.80;99.90;;;;;;5072372;28;20318;-74
2022/08/18 08:05:41;;;;;;;;;;;22.90;99.90;;;;;;5074307;28;19916;-74
2022/08/18 08:08:14;;;;;;;;;;;22.80;99.90;;;;;;5071936;28;20289;-74
2022/08/18 08:10:48;;;;;;;;;;;23.10;99.90;;;;;;5073735;28;19916;-74
2022/08/18 08:13:14;;;;;;;;;;;23.40;99.90;;;;;;5073771;28;19956;-75
2022/08/18 08:15:40;;;;;;;;;;;23.50;99.90;;;;;;5073083;28;19956;-74
2022/08/18 08:18:16;;;;;;;;;;;23.70;99.90;;;;;;5073287;28;20361;-73
2022/08/18 08:20:47;;;;;;;;;;;23.70;99.90;;;;;;5071677;28;21491;-75
2022/08/18 08:23:16;;;;;;;;;;;23.90;99.90;;;;;;5071830;28;20459;-74
2022/08/18 08:25:53;;;;;;;;;;;23.60;99.90;;;;;;5071085;28;19924;-75
2022/08/18 08:28:19;;;;;;;;;;;23.50;99.90;;;;;;5071538;28;19921;-76
2022/08/18 08:30:54;;;;;;;;;;;23.30;99.90;;;;;;5072213;28;20256;-74
2022/08/18 08:33:38;;;;;;;;;;;22.90;99.90;;;;;;5071127;28;19966;-75
2022/08/18 08:36:04;;;;;;;;;;;22.90;99.90;;;;;;5072651;28;19955;-74
2022/08/18 08:38:50;;;;;;;;;;;23.00;99.90;;;;;;5073462;28;19912;-74
2022/08/18 08:41:21;;;;;;;;;;;22.90;99.90;;;;;;5069725;28;20296;-77
2022/08/18 08:43:51;;;;;;;;;;;22.50;99.90;;;;;;5073278;28;20285;-75
2022/08/18 08:46:22;;;;;;;;;;;22.10;99.90;;;;;;5071873;28;19920;-75
2022/08/18 08:49:17;;;;;;;;;;;22.00;99.90;;;;;;5070707;28;19955;-75
2022/08/18 08:51:47;;;;;;;;;;;21.80;99.90;;;;;;5036452;28;19913;-74
2022/08/18 08:54:16;;;;;;;;;;;21.70;99.90;;;;;;5071899;28;19919;-75
2022/08/18 08:56:44;;;;;;;;;;;21.70;99.90;;;;;;5071900;28;19935;-77
2022/08/18 08:59:12;;;;;;;;;;;21.70;99.90;;;;;;5071124;28;19912;-73
2022/08/18 09:01:56;;;;;;;;;;;21.80;99.90;;;;;;5068525;28;19944;-73
2022/08/18 09:04:22;;;;;;;;;;;21.90;99.90;;;;;;5072841;28;19943;-73
2022/08/18 09:06:50;;;;;;;;;;;22.10;99.90;;;;;;5062818;28;19981;-74
2022/08/18 09:09:22;;;;;;;;;;;22.30;99.90;;;;;;5072263;28;19918;-73
2022/08/18 09:12:00;;;;;;;;;;;22.70;99.90;;;;;;5104163;28;19920;-73
2022/08/18 09:14:34;;;;;;;;;;;22.90;99.90;;;;;;5074180;28;20280;-74
2022/08/18 09:17:36;;;;;;;;;;;23.20;99.90;;;;;;5072815;28;19921;-73
2022/08/18 09:20:20;;;;;;;;;;;23.40;99.90;;;;;;5041351;28;19956;-74
2022/08/18 09:22:47;;;;;;;;;;;23.30;99.90;;;;;;5055360;28;19967;-74
2022/08/18 09:25:30;;;;;;;;;;;23.20;99.90;;;;;;5038469;28;19916;-74
2022/08/18 09:28:10;;;;;;;;;;;23.10;99.90;;;;;;5045284;28;19916;-75
2022/08/18 09:30:36;;;;;;;;;;;23.00;99.90;;;;;;5039036;28;19912;-75
2022/08/18 09:33:20;;;;;;;;;;;23.00;99.90;;;;;;5047977;28;20562;-76
2022/08/18 09:35:57;;;;;;;;;;;23.00;99.90;;;;;;5057923;28;19944;-78
2022/08/18 09:41:32;;;;;;;;;;;22.90;99.90;;;;;;5050679;28;19924;-77
2022/08/18 09:44:08;;;;;;;;;;;23.00;99.90;;;;;;5051437;28;19944;-74
2022/08/18 09:46:40;;;;;;;;;;;23.00;99.90;;;;;;5050452;28;20283;-75
2022/08/18 09:49:38;;;;;;;;;;;23.00;99.90;;;;;;5048859;28;19979;-75
2022/08/18 09:52:18;;;;;;;;;;;22.90;99.90;;;;;;5019639;28;20291;-74
2022/08/18 09:54:50;;;;;;;;;;;23.00;99.90;;;;;;5068234;28;20007;-75
2022/08/18 09:57:23;;;;;;;;;;;23.10;99.90;;;;;;5073631;28;19969;-76
2022/08/18 09:59:49;;;;;;;;;;;23.20;99.90;;;;;;5106237;28;19912;-74
2022/08/18 10:02:34;;;;;;;;;;;23.30;99.90;;;;;;5074661;28;19962;-75
2022/08/18 10:05:11;;;;;;;;;;;23.30;99.90;;;;;;5072606;28;19951;-74
2022/08/18 10:07:38;;;;;;;;;;;23.40;99.90;;;;;;5072475;28;19921;-75
2022/08/18 10:10:10;;;;;;;;;;;23.30;99.90;;;;;;5072927;28;19923;-74
2022/08/18 10:12:55;;;;;;;;;;;23.40;99.90;;;;;;5072967;28;19943;-75
2022/08/18 10:15:41;;;;;;;;;;;23.30;99.90;;;;;;5067363;28;20381;-74
2022/08/18 10:18:14;;;;;;;;;;;23.30;99.90;;;;;;5070250;28;20543;-74
2022/08/18 10:20:51;;;;;;;;;;;23.30;99.90;;;;;;5071508;28;19916;-74
2022/08/18 10:23:36;;;;;;;;;;;23.30;99.90;;;;;;5102301;28;20208;-76
2022/08/18 10:26:01;;;;;;;;;;;23.10;99.90;;;;;;5072597;28;19959;-76
2022/08/18 10:28:47;;;;;;;;;;;23.10;99.90;;;;;;5072907;28;19978;-76
2022/08/18 10:31:12;;;;;;;;;;;23.00;99.90;;;;;;5073385;28;19940;-75
2022/08/18 10:33:56;;;;;;;;;;;23.50;99.90;;;;;;5072966;28;20243;-77
2022/08/18 10:36:37;;;;;;;;;;;24.00;99.90;;;;;;5073920;28;19912;-76
2022/08/18 10:39:09;;;;;;;;;;;24.30;99.90;;;;;;5070482;28;20303;-75
2022/08/18 10:41:35;;;;;;;;;;;24.40;99.90;;;;;;5070613;28;19917;-75
2022/08/18 10:44:02;;;;;;;;;;;24.50;99.90;;;;;;5066173;28;20216;-75
2022/08/18 10:46:31;;;;;;;;;;;24.80;99.90;;;;;;5068456;28;19921;-75
2022/08/18 10:49:14;;;;;;;;;;;24.70;99.90;;;;;;5069885;28;19921;-76
2022/08/18 10:52:02;;;;;;;;;;;24.70;99.90;;;;;;5068952;28;20439;-74
2022/08/18 10:54:47;;;;;;;;;;;24.50;99.90;;;;;;5052103;28;19917;-75
2022/08/18 10:57:15;;;;;;;;;;;24.50;99.90;;;;;;5069087;28;19920;-76
2022/08/18 10:59:56;;;;;;;;;;;24.30;99.90;;;;;;5068320;28;20227;-76
2022/08/18 11:02:40;;;;;;;;;;;23.80;99.90;;;;;;5089803;28;20299;-74
2022/08/18 11:05:08;;;;;;;;;;;23.60;99.90;;;;;;5080717;28;19990;-76
2022/08/18 11:07:34;;;;;;;;;;;23.70;99.90;;;;;;5087279;28;19920;-76
2022/08/18 11:10:13;;;;;;;;;;;23.90;99.90;;;;;;5075718;28;20197;-75
2022/08/18 11:12:59;;;;;;;;;;;24.00;99.90;;;;;;5069249;28;19986;-76
2022/08/18 11:15:31;;;;;;;;;;;23.90;99.90;;;;;;5072875;28;20227;-74
2022/08/18 11:18:10;;;;;;;;;;;23.60;99.90;;;;;;5072122;28;19954;-75
2022/08/18 11:20:38;;;;;;;;;;;23.40;99.90;;;;;;5072226;28;19913;-75
2022/08/18 11:23:10;;;;;;;;;;;23.40;99.90;;;;;;5073153;28;19923;-75
2022/08/18 11:25:37;;;;;;;;;;;23.40;99.90;;;;;;5072819;28;20560;-75
2022/08/18 11:28:13;;;;;;;;;;;23.20;99.90;;;;;;5072954;28;19964;-75
2022/08/18 11:30:40;;;;;;;;;;;23.10;99.90;;;;;;5078045;28;19923;-75
2022/08/18 11:33:06;;;;;;;;;;;23.10;99.90;;;;;;5073976;28;19916;-74
2022/08/18 11:35:52;;;;;;;;;;;23.10;99.90;;;;;;5073443;28;19925;-76
2022/08/18 11:38:18;;;;;;;;;;;23.00;99.90;;;;;;5070566;28;19923;-76
2022/08/18 11:40:53;;;;;;;;;;;22.90;99.90;;;;;;5072143;28;20007;-74
2022/08/18 11:43:23;;;;;;;;;;;22.90;99.90;;;;;;5074203;28;19947;-74
2022/08/18 11:45:51;;;;;;;;;;;22.80;99.90;;;;;;5073719;28;19920;-75
2022/08/18 11:48:20;;;;;;;;;;;22.80;99.90;;;;;;5072422;28;20606;-73
2022/08/18 11:50:47;;;;;;;;;;;22.90;99.90;;;;;;5073807;28;19922;-76
2022/08/18 11:53:17;;;;;;;;;;;22.90;99.90;;;;;;5073703;28;19913;-74
2022/08/18 11:55:43;;;;;;;;;;;22.90;99.90;;;;;;5073602;28;19913;-74
2022/08/18 11:58:08;;;;;;;;;;;22.90;99.90;;;;;;5071559;28;20015;-75
2022/08/18 12:00:39;;;;;;;;;;;23.00;99.90;;;;;;5071693;28;20000;-76
2022/08/18 12:03:07;;;;;;;;;;;23.20;99.90;;;;;;5073780;28;19970;-75
2022/08/18 12:05:47;;;;;;;;;;;23.10;99.90;;;;;;5073171;28;20222;-73
2022/08/18 12:08:21;;;;;;;;;;;23.30;99.90;;;;;;5101467;28;19929;-75
2022/08/18 12:10:47;;;;;;;;;;;23.30;99.90;;;;;;5073328;28;19912;-73
2022/08/18 12:13:20;;;;;;;;;;;23.50;99.90;;;;;;5072575;28;19921;-73
2022/08/18 12:15:46;;;;;;;;;;;23.60;99.90;;;;;;5072562;28;20243;-73
2022/08/18 12:18:11;;;;;;;;;;;23.50;99.90;;;;;;5071718;28;19936;-73
2022/08/18 12:20:37;;;;;;;;;;;23.20;99.90;;;;;;5071913;28;19923;-75
2022/08/18 12:23:02;;;;;;;;;;;23.20;99.90;;;;;;5072088;28;20258;-76
2022/08/18 12:25:28;;;;;;;;;;;23.40;99.90;;;;;;5072000;28;19955;-76
2022/08/18 12:27:53;;;;;;;;;;;23.30;99.90;;;;;;5071399;28;19928;-74
2022/08/18 12:30:19;;;;;;;;;;;23.20;99.90;;;;;;5072403;28;20008;-75
2022/08/18 12:32:45;;;;;;;;;;;23.40;99.90;;;;;;5073849;28;20248;-76
2022/08/18 12:35:11;;;;;;;;;;;23.40;99.90;;;;;;5072555;28;19961;-75
2022/08/18 12:37:37;;;;;;;;;;;23.40;99.90;;;;;;5072078;28;19917;-73
2022/08/18 12:40:03;;;;;;;;;;;23.50;99.90;;;;;;5071708;28;19920;-77
2022/08/18 12:42:29;;;;;;;;;;;23.60;99.90;;;;;;5070290;28;19916;-76
2022/08/18 12:44:55;;;;;;;;;;;23.60;99.90;;;;;;5071919;28;20230;-75
2022/08/18 12:47:22;;;;;;;;;;;23.80;99.90;;;;;;5105803;28;19916;-77
2022/08/18 12:49:48;;;;;;;;;;;23.90;99.90;;;;;;5072149;28;19920;-74
2022/08/18 12:52:14;;;;;;;;;;;23.80;99.90;;;;;;5072191;28;20223;-76
2022/08/18 12:54:42;;;;;;;;;;;23.80;99.90;;;;;;5070728;28;19974;-75
2022/08/18 12:57:11;;;;;;;;;;;23.80;99.90;;;;;;5072086;28;19952;-75
2022/08/18 12:59:36;;;;;;;;;;;23.80;99.90;;;;;;5068502;28;19921;-76
2022/08/18 13:02:02;;;;;;;;;;;23.70;99.90;;;;;;5071566;28;19942;-77
2022/08/18 13:04:27;;;;;;;;;;;23.70;99.90;;;;;;5072235;28;20027;-75
2022/08/18 13:06:54;;;;;;;;;;;23.60;99.90;;;;;;5068518;28;19935;-76
2022/08/18 13:09:20;;;;;;;;;;;23.60;99.90;;;;;;5069681;28;19916;-74
2022/08/18 13:11:46;;;;;;;;;;;23.60;99.90;;;;;;5071600;28;20270;-75
2022/08/18 13:14:14;;;;;;;;;;;23.50;99.90;;;;;;5070461;28;19981;-74
2022/08/18 13:16:41;;;;;;;;;;;23.50;99.90;;;;;;5071178;28;20312;-74
2022/08/18 13:19:08;;;;;;;;;;;23.40;99.90;;;;;;5070193;28;20235;-76
2022/08/18 13:21:33;;;;;;;;;;;23.40;99.90;;;;;;5070347;28;19997;-76
2022/08/18 13:23:59;;;;;;;;;;;23.30;99.90;;;;;;5070296;28;20299;-73
2022/08/18 13:26:27;;;;;;;;;;;23.30;99.90;;;;;;5072123;28;19925;-76
2022/08/18 13:28:53;;;;;;;;;;;23.30;99.90;;;;;;5069617;28;19923;-72
2022/08/18 13:31:19;;;;;;;;;;;23.40;99.90;;;;;;5072001;28;19916;-75
2022/08/18 13:33:44;;;;;;;;;;;23.50;99.90;;;;;;5070579;28;19920;-76
2022/08/18 13:36:10;;;;;;;;;;;23.50;99.90;;;;;;5071763;28;20227;-76
2022/08/18 13:38:36;;;;;;;;;;;23.50;99.90;;;;;;5070640;28;20287;-77
2022/08/18 13:41:07;;;;;;;;;;;23.50;99.90;;;;;;5070724;28;20231;-77
2022/08/18 13:43:37;;;;;;;;;;;23.50;99.90;;;;;;5071751;28;20439;-75
2022/08/18 13:46:04;;;;;;;;;;;23.60;99.90;;;;;;5069639;28;19919;-75
2022/08/18 13:48:30;;;;;;;;;;;23.70;99.90;;;;;;5070543;28;19912;-77
2022/08/18 13:50:57;;;;;;;;;;;23.60;99.90;;;;;;5070365;28;19924;-75
2022/08/18 13:53:24;;;;;;;;;;;23.60;99.90;;;;;;5071177;28;19912;-75
2022/08/18 13:55:49;;;;;;;;;;;23.50;99.90;;;;;;5070959;28;19913;-76
2022/08/18 13:58:16;;;;;;;;;;;23.40;99.90;;;;;;5070648;28;19924;-74
2022/08/18 14:00:41;;;;;;;;;;;23.40;99.90;;;;;;5069788;28;19913;-75
2022/08/18 14:03:11;;;;;;;;;;;23.50;99.90;;;;;;5069528;28;19942;-76
2022/08/18 14:05:37;;;;;;;;;;;23.60;99.90;;;;;;5068437;28;19963;-75
2022/08/18 14:08:03;;;;;;;;;;;23.60;99.90;;;;;;5071701;28;19974;-75
2022/08/18 14:10:29;;;;;;;;;;;23.70;99.90;;;;;;5070635;28;19944;-75
2022/08/18 14:12:56;;;;;;;;;;;23.70;99.90;;;;;;5072717;28;19916;-76
2022/08/18 14:15:22;;;;;;;;;;;23.70;99.90;;;;;;5071975;28;19920;-76
2022/08/18 14:17:47;;;;;;;;;;;23.70;99.90;;;;;;5072808;28;20220;-77
2022/08/18 14:28:27;;;;;;;;;;;23.70;99.90;;;;;;5068672;28;19939;-77
2022/08/18 14:30:53;;;;;;;;;;;23.80;99.90;;;;;;5104737;28;19912;-77
2022/08/18 14:33:19;;;;;;;;;;;23.80;99.90;;;;;;5069537;28;19923;-76
2022/08/18 14:35:46;;;;;;;;;;;23.80;99.90;;;;;;5074991;28;19913;-75
2022/08/18 14:38:13;;;;;;;;;;;23.80;99.90;;;;;;5077132;28;20190;-76
2022/08/18 14:40:40;;;;;;;;;;;23.80;99.90;;;;;;5071462;28;19955;-76
2022/08/18 14:43:06;;;;;;;;;;;23.80;99.90;;;;;;5075174;28;20316;-76
2022/08/18 14:45:32;;;;;;;;;;;23.80;99.90;;;;;;5075828;28;19960;-75
2022/08/18 14:47:58;;;;;;;;;;;23.90;99.90;;;;;;5107934;28;19943;-77
2022/08/18 14:50:23;;;;;;;;;;;23.90;99.90;;;;;;5077807;28;19916;-76
2022/08/18 14:52:49;;;;;;;;;;;23.90;99.90;;;;;;5075147;28;19913;-75